Time;durP1;ratioP1;P1;durP2;ratioP2;P2;SDS_P1;SDS_P2;PMS_P1;PMS_P2;Temp;Humidity;BMP_temperature;BMP_pressure;BME280_temperature;BME280_humidity;BME280_pressure;Samples;Min_cycle;Max_cycle;Signal;HPM_P1;HPM_P2
2022/06/06 00:00:42;;;;;;;;;;;14.60;99.90;;;;;;5037571;28;19913;-81
2022/06/06 00:03:08;;;;;;;;;;;14.60;99.90;;;;;;5037608;28;20428;-80
2022/06/06 00:05:34;;;;;;;;;;;14.50;99.90;;;;;;5054186;28;19909;-80
2022/06/06 00:07:59;;;;;;;;;;;14.40;99.90;;;;;;5055766;28;20377;-82
2022/06/06 00:10:25;;;;;;;;;;;14.50;99.90;;;;;;5055372;28;19931;-82
2022/06/06 00:12:51;;;;;;;;;;;14.70;99.90;;;;;;5055422;28;19972;-81
2022/06/06 00:15:17;;;;;;;;;;;14.70;99.90;;;;;;5053918;28;20357;-80
2022/06/06 00:17:43;;;;;;;;;;;14.40;99.90;;;;;;5037257;28;19909;-79
2022/06/06 00:20:09;;;;;;;;;;;14.40;99.90;;;;;;5055079;28;19913;-82
2022/06/06 00:22:35;;;;;;;;;;;14.20;99.90;;;;;;5055193;28;19948;-82
2022/06/06 00:25:00;;;;;;;;;;;14.10;99.90;;;;;;5055586;28;19916;-80
2022/06/06 00:27:26;;;;;;;;;;;14.00;99.90;;;;;;5055002;28;19955;-80
2022/06/06 00:29:53;;;;;;;;;;;14.00;99.90;;;;;;5055132;28;20190;-82
2022/06/06 00:35:05;;;;;;;;;;;14.00;99.90;;;;;;5054951;28;19916;-81
2022/06/06 00:37:32;;;;;;;;;;;13.80;99.90;;;;;;5036680;28;19921;-80
2022/06/06 00:39:58;;;;;;;;;;;13.80;99.90;;;;;;5054651;28;20384;-82
2022/06/06 00:42:26;;;;;;;;;;;13.80;99.90;;;;;;5054741;28;19913;-81
2022/06/06 00:45:12;;;;;;;;;;;13.70;99.90;;;;;;5054767;28;19908;-80
2022/06/06 00:47:38;;;;;;;;;;;13.80;99.90;;;;;;5040412;28;20365;-81
2022/06/06 00:50:09;;;;;;;;;;;13.80;99.90;;;;;;5054920;28;20366;-80
2022/06/06 00:52:37;;;;;;;;;;;13.60;99.90;;;;;;5054653;28;19909;-80
2022/06/06 00:55:06;;;;;;;;;;;13.70;99.90;;;;;;5054540;28;19912;-81
2022/06/06 00:57:34;;;;;;;;;;;13.80;99.90;;;;;;5054385;28;20278;-82
2022/06/06 01:00:03;;;;;;;;;;;14.00;99.90;;;;;;5054256;28;19959;-80
2022/06/06 01:02:28;;;;;;;;;;;14.00;99.90;;;;;;5054362;28;19909;-82
2022/06/06 01:04:55;;;;;;;;;;;13.90;99.90;;;;;;5054476;28;19959;-82
2022/06/06 01:07:20;;;;;;;;;;;13.90;99.90;;;;;;5054273;28;19932;-79
2022/06/06 01:09:46;;;;;;;;;;;14.10;99.90;;;;;;5054186;28;20369;-80
2022/06/06 01:12:16;;;;;;;;;;;14.20;99.90;;;;;;5054214;28;19920;-82
2022/06/06 01:14:45;;;;;;;;;;;14.30;99.90;;;;;;5054395;28;19909;-80
2022/06/06 01:17:14;;;;;;;;;;;14.40;99.90;;;;;;5036175;28;20384;-82
2022/06/06 01:19:39;;;;;;;;;;;14.40;99.90;;;;;;5036052;28;19913;-82
2022/06/06 01:22:14;;;;;;;;;;;14.60;99.90;;;;;;5054233;28;19908;-81
2022/06/06 01:24:58;;;;;;;;;;;14.60;99.90;;;;;;5036061;28;20377;-81
2022/06/06 01:27:42;;;;;;;;;;;14.50;99.90;;;;;;5053948;28;19952;-81
2022/06/06 01:30:12;;;;;;;;;;;14.50;99.90;;;;;;5035917;28;20369;-79
2022/06/06 01:32:42;;;;;;;;;;;14.50;99.90;;;;;;5054082;28;19908;-81
2022/06/06 01:35:09;;;;;;;;;;;14.60;99.90;;;;;;5053781;28;19909;-82
2022/06/06 01:37:41;;;;;;;;;;;14.60;99.90;;;;;;5053600;28;20334;-81
2022/06/06 01:40:14;;;;;;;;;;;14.70;99.90;;;;;;5052371;28;19912;-81
2022/06/06 01:42:41;;;;;;;;;;;14.70;99.90;;;;;;5052968;28;20218;-81
2022/06/06 01:45:07;;;;;;;;;;;14.70;99.90;;;;;;5053693;28;19931;-82
2022/06/06 01:47:47;;;;;;;;;;;14.60;99.90;;;;;;5053679;28;20337;-81
2022/06/06 01:50:13;;;;;;;;;;;14.50;99.90;;;;;;5053580;28;19913;-81
2022/06/06 01:52:51;;;;;;;;;;;14.40;99.90;;;;;;5035749;28;19908;-82
2022/06/06 01:55:17;;;;;;;;;;;14.40;99.90;;;;;;5035752;28;20288;-82
2022/06/06 01:57:43;;;;;;;;;;;14.40;99.90;;;;;;5053778;28;19913;-82
2022/06/06 02:00:09;;;;;;;;;;;14.40;99.90;;;;;;5035482;28;19913;-82
2022/06/06 02:02:34;;;;;;;;;;;14.40;99.90;;;;;;5052176;28;20293;-80
2022/06/06 02:05:00;;;;;;;;;;;14.40;99.90;;;;;;5053677;28;19909;-80
2022/06/06 02:07:26;;;;;;;;;;;14.40;99.90;;;;;;5053643;28;20353;-80
2022/06/06 02:09:51;;;;;;;;;;;14.40;99.90;;;;;;5053409;28;19909;-80
2022/06/06 02:12:19;;;;;;;;;;;14.30;99.90;;;;;;5037497;28;19916;-81
2022/06/06 02:14:47;;;;;;;;;;;14.10;99.90;;;;;;5057695;28;19916;-81
2022/06/06 02:17:12;;;;;;;;;;;14.10;99.90;;;;;;5056215;28;20050;-81
2022/06/06 02:19:38;;;;;;;;;;;14.00;99.90;;;;;;5039487;28;19975;-81
2022/06/06 02:22:04;;;;;;;;;;;14.10;99.90;;;;;;5057406;28;20385;-81
2022/06/06 02:24:29;;;;;;;;;;;13.90;99.90;;;;;;5057308;28;19909;-80
2022/06/06 02:26:55;;;;;;;;;;;13.90;99.90;;;;;;5057288;28;19916;-82
2022/06/06 02:29:21;;;;;;;;;;;14.00;99.90;;;;;;5057348;28;20007;-80
2022/06/06 02:31:46;;;;;;;;;;;13.90;99.90;;;;;;5057191;28;20338;-82
2022/06/06 02:34:12;;;;;;;;;;;14.00;99.90;;;;;;5057136;28;20385;-82
2022/06/06 02:36:38;;;;;;;;;;;14.00;99.90;;;;;;5057074;28;19987;-82
2022/06/06 02:39:04;;;;;;;;;;;14.00;99.90;;;;;;5039092;28;19923;-80
2022/06/06 02:41:30;;;;;;;;;;;14.00;99.90;;;;;;5057095;28;20003;-83
2022/06/06 02:43:58;;;;;;;;;;;13.70;99.90;;;;;;5056946;28;19908;-80
2022/06/06 02:46:24;;;;;;;;;;;13.60;99.90;;;;;;5056919;28;20019;-82
2022/06/06 02:48:50;;;;;;;;;;;13.50;99.90;;;;;;5057040;28;20353;-81
2022/06/06 02:51:15;;;;;;;;;;;13.20;99.90;;;;;;5056919;28;19909;-81
2022/06/06 02:53:41;;;;;;;;;;;12.80;99.90;;;;;;5056745;28;20392;-81
2022/06/06 02:56:07;;;;;;;;;;;12.90;99.90;;;;;;5056981;28;19916;-80
2022/06/06 02:58:33;;;;;;;;;;;13.00;99.90;;;;;;5056828;28;20334;-81
2022/06/06 03:01:04;;;;;;;;;;;13.10;99.90;;;;;;5057095;28;20004;-81
2022/06/06 03:03:30;;;;;;;;;;;13.40;99.90;;;;;;5056628;28;20281;-80
2022/06/06 03:06:02;;;;;;;;;;;13.50;99.90;;;;;;5056572;28;20388;-81
2022/06/06 03:08:35;;;;;;;;;;;13.60;99.90;;;;;;5056693;28;19916;-81
2022/06/06 03:11:21;;;;;;;;;;;13.70;99.90;;;;;;5038307;28;19944;-81
2022/06/06 03:14:12;;;;;;;;;;;13.70;99.90;;;;;;5054869;28;19909;-81
2022/06/06 03:22:43;;;;;;;;;;;13.30;99.90;;;;;;5055394;28;19955;-81
2022/06/06 03:25:29;;;;;;;;;;;13.40;99.90;;;;;;5055835;28;19915;-82
2022/06/06 03:27:58;;;;;;;;;;;13.40;99.90;;;;;;5042086;28;19908;-80
2022/06/06 03:30:23;;;;;;;;;;;13.30;99.90;;;;;;5038271;28;19982;-80
2022/06/06 03:32:57;;;;;;;;;;;13.20;99.90;;;;;;5056236;28;20361;-81
2022/06/06 03:35:37;;;;;;;;;;;13.30;99.90;;;;;;5056210;28;19920;-80
2022/06/06 03:38:03;;;;;;;;;;;13.30;99.90;;;;;;5055636;28;20031;-80
2022/06/06 03:40:28;;;;;;;;;;;13.10;99.90;;;;;;5038094;28;19909;-81
2022/06/06 03:42:56;;;;;;;;;;;12.80;99.90;;;;;;5055906;28;19909;-80
2022/06/06 03:45:30;;;;;;;;;;;12.80;99.90;;;;;;5055815;28;19999;-82
2022/06/06 03:47:55;;;;;;;;;;;12.60;99.90;;;;;;5056853;28;19916;-80
2022/06/06 03:50:24;;;;;;;;;;;12.90;99.90;;;;;;5055760;28;19909;-81
2022/06/06 03:52:49;;;;;;;;;;;13.00;99.90;;;;;;5055724;28;20050;-81
2022/06/06 03:55:18;;;;;;;;;;;12.90;99.90;;;;;;5037729;28;19959;-80
2022/06/06 03:57:45;;;;;;;;;;;13.00;99.90;;;;;;5055680;28;19959;-82
2022/06/06 04:00:12;;;;;;;;;;;12.70;99.90;;;;;;5037576;28;19920;-81
2022/06/06 04:02:38;;;;;;;;;;;12.70;99.90;;;;;;5055483;28;19909;-82
2022/06/06 04:05:06;;;;;;;;;;;12.50;99.90;;;;;;5055760;28;19916;-80
2022/06/06 04:07:32;;;;;;;;;;;12.20;99.90;;;;;;5055365;28;20001;-81
2022/06/06 04:09:57;;;;;;;;;;;12.30;99.90;;;;;;5055441;28;19956;-82
2022/06/06 04:12:45;;;;;;;;;;;12.40;99.90;;;;;;5055471;28;19913;-81
2022/06/06 04:15:30;;;;;;;;;;;12.40;99.90;;;;;;5054562;28;20007;-80
2022/06/06 04:18:04;;;;;;;;;;;12.70;99.90;;;;;;5055243;28;20408;-80
2022/06/06 04:20:33;;;;;;;;;;;12.80;99.90;;;;;;5055677;28;20000;-81
2022/06/06 04:23:06;;;;;;;;;;;12.80;99.90;;;;;;5055305;28;19954;-81
2022/06/06 04:25:47;;;;;;;;;;;12.70;99.90;;;;;;5055184;28;19959;-83
2022/06/06 04:28:28;;;;;;;;;;;12.60;99.90;;;;;;5055026;28;19919;-81
2022/06/06 04:31:08;;;;;;;;;;;12.60;99.90;;;;;;5055131;28;20353;-81
2022/06/06 04:33:40;;;;;;;;;;;12.50;99.90;;;;;;5055038;28;19908;-81
2022/06/06 04:36:11;;;;;;;;;;;12.30;99.90;;;;;;5036464;28;19909;-81
2022/06/06 04:39:03;;;;;;;;;;;12.30;99.90;;;;;;5053387;28;19947;-80
2022/06/06 04:41:28;;;;;;;;;;;12.60;99.90;;;;;;5053471;28;19963;-81
2022/06/06 04:44:14;;;;;;;;;;;12.60;99.90;;;;;;5054696;28;19912;-81
2022/06/06 04:46:52;;;;;;;;;;;12.60;99.90;;;;;;5054782;28;19916;-82
2022/06/06 04:49:19;;;;;;;;;;;12.70;99.90;;;;;;5054656;28;20000;-82
2022/06/06 04:51:45;;;;;;;;;;;12.70;99.90;;;;;;5054540;28;19916;-81
2022/06/06 04:54:14;;;;;;;;;;;12.80;99.90;;;;;;5054768;28;20392;-82
2022/06/06 04:56:42;;;;;;;;;;;12.90;99.90;;;;;;5054508;28;19962;-80
2022/06/06 04:59:09;;;;;;;;;;;13.10;99.90;;;;;;5054403;28;19920;-82
2022/06/06 05:01:36;;;;;;;;;;;13.10;99.90;;;;;;5054422;28;19909;-81
2022/06/06 05:04:01;;;;;;;;;;;13.30;99.90;;;;;;5054361;28;19913;-82
2022/06/06 05:06:27;;;;;;;;;;;13.50;99.90;;;;;;5054297;28;19909;-81
2022/06/06 05:09:08;;;;;;;;;;;13.50;99.90;;;;;;5054430;28;19963;-80
2022/06/06 05:11:54;;;;;;;;;;;13.50;99.90;;;;;;5054274;28;20026;-81
2022/06/06 05:14:32;;;;;;;;;;;13.70;99.90;;;;;;5053477;28;20378;-81
2022/06/06 05:17:06;;;;;;;;;;;13.70;99.90;;;;;;5054265;28;20437;-80
2022/06/06 05:19:41;;;;;;;;;;;13.80;99.90;;;;;;5054036;28;19912;-81
2022/06/06 05:22:25;;;;;;;;;;;13.70;99.90;;;;;;5054263;28;19909;-82
2022/06/06 05:25:05;;;;;;;;;;;13.70;99.90;;;;;;5054094;28;19909;-81
2022/06/06 05:27:34;;;;;;;;;;;13.70;99.90;;;;;;5054209;28;19946;-80
2022/06/06 05:30:04;;;;;;;;;;;13.80;99.90;;;;;;5054121;28;19909;-81
2022/06/06 05:32:49;;;;;;;;;;;14.00;99.90;;;;;;5053913;28;19909;-82
2022/06/06 05:35:24;;;;;;;;;;;14.10;99.90;;;;;;5053793;28;19909;-80
2022/06/06 05:38:16;;;;;;;;;;;14.30;99.90;;;;;;5053702;28;19925;-82
2022/06/06 05:40:48;;;;;;;;;;;14.30;99.90;;;;;;5049605;28;20023;-81
2022/06/06 05:43:17;;;;;;;;;;;14.30;99.90;;;;;;5053831;28;19935;-80
2022/06/06 05:46:18;;;;;;;;;;;14.20;99.90;;;;;;5035507;28;20312;-80
2022/06/06 05:48:51;;;;;;;;;;;14.40;99.90;;;;;;4972961;28;19918;-81
2022/06/06 05:51:22;;;;;;;;;;;14.30;99.90;;;;;;5040996;28;19958;-82
2022/06/06 05:53:57;;;;;;;;;;;14.30;99.90;;;;;;5053804;28;19978;-81
2022/06/06 05:56:28;;;;;;;;;;;14.30;99.90;;;;;;5053604;28;19913;-81
2022/06/06 05:59:03;;;;;;;;;;;14.20;99.90;;;;;;5053464;28;20337;-80
2022/06/06 06:01:55;;;;;;;;;;;14.20;99.90;;;;;;5035655;28;19908;-81
2022/06/06 06:04:30;;;;;;;;;;;14.40;99.90;;;;;;5049745;28;19909;-81
2022/06/06 06:07:11;;;;;;;;;;;14.60;99.90;;;;;;5053685;28;19909;-82
2022/06/06 06:09:59;;;;;;;;;;;14.50;99.90;;;;;;5053591;28;19909;-82
2022/06/06 06:12:27;;;;;;;;;;;14.60;99.90;;;;;;5051996;28;20388;-80
2022/06/06 06:15:28;;;;;;;;;;;14.60;99.90;;;;;;5053429;28;19948;-81
2022/06/06 06:17:54;;;;;;;;;;;14.60;99.90;;;;;;4972967;28;19914;-81
2022/06/06 06:20:30;;;;;;;;;;;15.10;99.90;;;;;;5019049;28;19913;-82
2022/06/06 06:23:06;;;;;;;;;;;15.20;99.90;;;;;;5053294;28;19909;-80
2022/06/06 06:25:37;;;;;;;;;;;15.60;99.90;;;;;;5053953;28;19908;-81
2022/06/06 06:28:06;;;;;;;;;;;15.80;99.90;;;;;;5053261;28;19909;-82
2022/06/06 06:30:55;;;;;;;;;;;16.20;99.90;;;;;;5053253;28;19935;-81
2022/06/06 06:33:21;;;;;;;;;;;16.50;99.90;;;;;;5015786;28;19916;-80
2022/06/06 06:36:05;;;;;;;;;;;16.30;99.90;;;;;;5053206;28;19909;-80
2022/06/06 06:38:36;;;;;;;;;;;16.20;99.90;;;;;;5053476;28;20304;-81
2022/06/06 06:41:05;;;;;;;;;;;15.90;99.90;;;;;;5053177;28;19909;-80
2022/06/06 06:43:44;;;;;;;;;;;16.10;99.90;;;;;;5035277;28;19909;-80
2022/06/06 06:46:20;;;;;;;;;;;16.20;99.90;;;;;;5053162;28;19964;-81
2022/06/06 06:48:47;;;;;;;;;;;16.30;99.90;;;;;;5053272;28;19909;-80
2022/06/06 06:51:17;;;;;;;;;;;16.40;99.90;;;;;;5053187;28;20381;-80
2022/06/06 06:53:54;;;;;;;;;;;16.60;99.90;;;;;;5053079;28;20381;-81
2022/06/06 06:56:45;;;;;;;;;;;16.90;99.90;;;;;;5053255;28;20027;-82
2022/06/06 06:59:21;;;;;;;;;;;16.80;99.90;;;;;;5056464;28;19936;-80
2022/06/06 07:08:32;;;;;;;;;;;16.90;99.90;;;;;;5056778;28;19909;-80
2022/06/06 07:10:24;;;;;;;;;;;17.50;99.90;;;;;;5056561;28;19916;-81
2022/06/06 07:12:50;;;;;;;;;;;17.50;99.90;;;;;;5056741;28;20365;-82
2022/06/06 07:15:25;;;;;;;;;;;17.50;99.90;;;;;;5038566;28;19915;-82
2022/06/06 07:17:53;;;;;;;;;;;17.60;99.90;;;;;;5056415;28;19916;-80
2022/06/06 07:20:20;;;;;;;;;;;17.80;99.90;;;;;;5056223;28;20365;-82
2022/06/06 07:23:02;;;;;;;;;;;18.10;99.90;;;;;;5056275;28;19909;-81
2022/06/06 07:25:37;;;;;;;;;;;18.10;99.90;;;;;;5056408;28;19915;-82
2022/06/06 07:28:03;;;;;;;;;;;18.30;99.90;;;;;;5056154;28;20276;-81
2022/06/06 07:30:34;;;;;;;;;;;18.60;99.90;;;;;;5056164;28;20423;-80
2022/06/06 07:33:08;;;;;;;;;;;18.70;99.90;;;;;;5056113;28;19995;-81
2022/06/06 07:35:39;;;;;;;;;;;18.90;99.90;;;;;;5037940;28;20007;-80
2022/06/06 07:38:23;;;;;;;;;;;19.00;99.90;;;;;;5055810;28;19924;-82
2022/06/06 07:40:57;;;;;;;;;;;19.90;99.90;;;;;;5056132;28;19913;-82
2022/06/06 07:43:23;;;;;;;;;;;22.50;95.40;;;;;;5055978;28;19913;-81
2022/06/06 07:45:54;;;;;;;;;;;25.20;91.30;;;;;;5038030;28;20404;-80
2022/06/06 07:48:38;;;;;;;;;;;25.70;81.60;;;;;;5056259;28;19909;-81
2022/06/06 07:51:22;;;;;;;;;;;27.60;81.00;;;;;;5055751;28;19909;-82
2022/06/06 07:53:58;;;;;;;;;;;29.20;70.00;;;;;;5037765;28;19954;-82
2022/06/06 07:56:23;;;;;;;;;;;26.20;69.50;;;;;;5055823;28;20434;-81
2022/06/06 07:59:07;;;;;;;;;;;24.80;75.30;;;;;;5055558;28;19999;-80
2022/06/06 08:01:33;;;;;;;;;;;23.70;76.70;;;;;;5055491;28;19963;-83
2022/06/06 08:04:15;;;;;;;;;;;22.30;80.40;;;;;;5055696;28;19952;-82
2022/06/06 08:06:43;;;;;;;;;;;24.20;77.80;;;;;;5055802;28;19909;-81
2022/06/06 08:09:12;;;;;;;;;;;23.40;78.30;;;;;;5054866;28;19909;-82
2022/06/06 08:11:37;;;;;;;;;;;23.30;80.20;;;;;;5037389;28;19999;-81
2022/06/06 08:14:14;;;;;;;;;;;23.50;78.50;;;;;;5055513;28;19951;-82
2022/06/06 08:16:48;;;;;;;;;;;26.70;73.10;;;;;;5037189;28;19975;-81
2022/06/06 08:19:33;;;;;;;;;;;26.70;66.90;;;;;;5055201;28;20283;-82
2022/06/06 08:22:00;;;;;;;;;;;25.70;68.10;;;;;;5055727;28;19913;-81
2022/06/06 08:24:27;;;;;;;;;;;25.00;70.30;;;;;;5053831;28;19908;-82
2022/06/06 08:26:54;;;;;;;;;;;24.40;70.90;;;;;;5055037;28;19913;-80
2022/06/06 08:29:20;;;;;;;;;;;23.80;72.70;;;;;;5054956;28;19975;-81
2022/06/06 08:31:46;;;;;;;;;;;23.00;73.50;;;;;;5055083;28;19952;-82
2022/06/06 08:34:12;;;;;;;;;;;23.20;76.90;;;;;;5055288;28;19940;-81
2022/06/06 08:36:43;;;;;;;;;;;25.20;72.30;;;;;;5054696;28;19998;-82
2022/06/06 08:39:09;;;;;;;;;;;24.90;68.90;;;;;;5054939;28;19913;-83
2022/06/06 08:41:34;;;;;;;;;;;25.30;70.10;;;;;;5054761;28;19915;-82
2022/06/06 08:44:02;;;;;;;;;;;26.20;65.80;;;;;;5036859;28;19999;-81
2022/06/06 08:46:28;;;;;;;;;;;25.40;65.80;;;;;;5054687;28;19916;-80
2022/06/06 08:50:44;;;;;;;;;;;24.80;66.60;;;;;;5054623;28;19913;-83
2022/06/06 08:52:05;;;;;;;;;;;25.20;65.60;;;;;;5054145;28;20003;-82
2022/06/06 08:54:31;;;;;;;;;;;25.80;63.30;;;;;;5054775;28;19916;-82
2022/06/06 08:56:57;;;;;;;;;;;25.00;64.80;;;;;;5036624;28;19909;-82
2022/06/06 08:59:22;;;;;;;;;;;24.60;66.50;;;;;;5054358;28;19916;-81
2022/06/06 09:01:48;;;;;;;;;;;24.90;66.50;;;;;;5054410;28;20007;-82
2022/06/06 09:04:13;;;;;;;;;;;24.40;65.40;;;;;;5054366;28;19909;-81
2022/06/06 09:06:42;;;;;;;;;;;24.80;65.60;;;;;;5054338;28;20003;-80
2022/06/06 09:09:31;;;;;;;;;;;24.20;66.20;;;;;;5036362;28;19916;-81
2022/06/06 09:11:56;;;;;;;;;;;23.90;67.20;;;;;;5016445;28;19913;-80
2022/06/06 09:14:40;;;;;;;;;;;23.20;68.80;;;;;;5054416;28;20472;-81
2022/06/06 09:17:12;;;;;;;;;;;22.60;72.10;;;;;;5054395;28;20004;-80
2022/06/06 09:19:56;;;;;;;;;;;23.40;73.70;;;;;;5054053;28;19913;-80
2022/06/06 09:22:42;;;;;;;;;;;26.30;68.50;;;;;;5053158;28;20395;-81
2022/06/06 09:25:13;;;;;;;;;;;29.00;64.60;;;;;;5054112;28;19959;-81
2022/06/06 09:28:00;;;;;;;;;;;30.10;60.20;;;;;;5054022;28;19958;-80
2022/06/06 09:30:45;;;;;;;;;;;28.00;57.50;;;;;;5054398;28;20042;-82
2022/06/06 09:33:16;;;;;;;;;;;27.60;59.90;;;;;;5053978;28;19923;-83
2022/06/06 09:35:52;;;;;;;;;;;28.00;58.50;;;;;;5053845;28;20320;-79
2022/06/06 09:38:42;;;;;;;;;;;27.30;58.40;;;;;;5053338;28;19927;-82
2022/06/06 09:41:33;;;;;;;;;;;26.40;59.50;;;;;;5054004;28;19908;-82
2022/06/06 09:44:17;;;;;;;;;;;25.60;61.30;;;;;;5035523;28;20332;-80
2022/06/06 09:47:01;;;;;;;;;;;25.10;63.10;;;;;;5053665;28;19920;-80
2022/06/06 09:49:27;;;;;;;;;;;25.40;61.90;;;;;;5053700;28;19909;-82
2022/06/06 09:51:55;;;;;;;;;;;26.10;61.60;;;;;;5053657;28;19927;-80
2022/06/06 10:00:22;;;;;;;;;;;25.30;60.10;;;;;;5053301;28;20391;-80
2022/06/06 10:03:00;;;;;;;;;;;24.50;62.50;;;;;;5053519;28;20366;-81
2022/06/06 10:05:44;;;;;;;;;;;24.50;63.60;;;;;;5053427;28;20361;-82
2022/06/06 10:08:21;;;;;;;;;;;24.50;62.90;;;;;;5035471;28;19916;-80
2022/06/06 10:11:10;;;;;;;;;;;24.70;62.00;;;;;;5053386;28;20385;-82
2022/06/06 10:13:51;;;;;;;;;;;24.70;61.90;;;;;;5051784;28;20293;-82
2022/06/06 10:16:22;;;;;;;;;;;24.70;63.10;;;;;;5053410;28;19931;-82
2022/06/06 10:18:58;;;;;;;;;;;25.10;60.80;;;;;;5035399;28;20338;-82
2022/06/06 10:21:44;;;;;;;;;;;24.60;62.40;;;;;;5053368;28;19920;-81
2022/06/06 10:24:28;;;;;;;;;;;24.60;63.20;;;;;;5053436;28;19909;-82
2022/06/06 10:26:54;;;;;;;;;;;24.60;62.40;;;;;;5053468;28;19908;-82
2022/06/06 10:29:19;;;;;;;;;;;23.80;63.60;;;;;;5053454;28;19961;-80
2022/06/06 10:31:48;;;;;;;;;;;23.80;65.30;;;;;;5053272;28;19909;-80
2022/06/06 10:34:30;;;;;;;;;;;23.90;65.40;;;;;;5056926;28;19920;-82
2022/06/06 10:37:01;;;;;;;;;;;23.60;65.40;;;;;;5057065;28;19921;-82
2022/06/06 10:39:51;;;;;;;;;;;23.40;67.30;;;;;;5057278;28;19912;-82
2022/06/06 10:42:19;;;;;;;;;;;23.70;65.90;;;;;;5057257;28;19909;-80
2022/06/06 10:45:03;;;;;;;;;;;24.20;64.50;;;;;;5057007;28;19909;-80
2022/06/06 10:47:41;;;;;;;;;;;24.90;64.10;;;;;;5056935;28;19909;-82
2022/06/06 10:50:15;;;;;;;;;;;26.30;61.60;;;;;;5057022;28;20266;-81
2022/06/06 10:52:41;;;;;;;;;;;26.60;60.30;;;;;;5056966;28;19962;-82
2022/06/06 10:55:07;;;;;;;;;;;25.50;59.40;;;;;;5057019;28;20003;-80
2022/06/06 10:57:52;;;;;;;;;;;24.90;61.00;;;;;;5057164;28;19912;-82
2022/06/06 11:00:19;;;;;;;;;;;25.00;62.10;;;;;;5056858;28;19913;-80
2022/06/06 11:02:54;;;;;;;;;;;24.50;64.00;;;;;;5056711;28;19909;-82
2022/06/06 11:05:38;;;;;;;;;;;23.90;64.10;;;;;;5038771;28;19909;-81
2022/06/06 11:08:06;;;;;;;;;;;23.50;65.10;;;;;;5056650;28;19920;-81
2022/06/06 11:10:32;;;;;;;;;;;23.10;66.10;;;;;;5056687;28;19909;-81
2022/06/06 11:13:13;;;;;;;;;;;23.30;65.30;;;;;;5038607;28;19958;-81
2022/06/06 11:15:41;;;;;;;;;;;23.70;65.50;;;;;;5056911;28;20495;-80
2022/06/06 11:18:27;;;;;;;;;;;24.40;65.20;;;;;;5056403;28;20262;-82
2022/06/06 11:20:55;;;;;;;;;;;24.30;64.60;;;;;;5056430;28;19962;-81
2022/06/06 11:23:36;;;;;;;;;;;23.90;65.20;;;;;;5056608;28;20277;-80
2022/06/06 11:26:21;;;;;;;;;;;23.20;66.20;;;;;;5056625;28;19909;-81
2022/06/06 11:29:06;;;;;;;;;;;23.10;66.60;;;;;;5056350;28;19915;-83
2022/06/06 11:31:50;;;;;;;;;;;23.50;66.40;;;;;;5038269;28;19909;-81
2022/06/06 11:34:35;;;;;;;;;;;24.50;66.50;;;;;;5038244;28;19988;-83
2022/06/06 11:37:12;;;;;;;;;;;25.10;63.40;;;;;;5055837;28;19920;-81
2022/06/06 11:39:41;;;;;;;;;;;25.90;63.50;;;;;;5055962;28;20350;-80
2022/06/06 11:42:26;;;;;;;;;;;26.30;62.30;;;;;;5056137;28;20423;-83
2022/06/06 11:44:52;;;;;;;;;;;25.70;62.70;;;;;;5054840;28;20290;-82
2022/06/06 11:47:36;;;;;;;;;;;25.60;62.60;;;;;;5056172;28;19962;-80
2022/06/06 11:50:17;;;;;;;;;;;25.00;64.00;;;;;;5056017;28;19908;-81
2022/06/06 11:52:43;;;;;;;;;;;24.60;64.90;;;;;;5055855;28;19948;-82
2022/06/06 11:55:27;;;;;;;;;;;24.50;64.90;;;;;;5055718;28;19909;-82
2022/06/06 11:57:59;;;;;;;;;;;24.60;65.10;;;;;;5055709;28;19913;-80
2022/06/06 12:00:44;;;;;;;;;;;24.10;66.80;;;;;;5055564;28;19913;-82
2022/06/06 12:03:24;;;;;;;;;;;24.50;65.50;;;;;;5055527;28;19950;-81
2022/06/06 12:06:10;;;;;;;;;;;25.10;65.90;;;;;;5055704;28;19909;-81
2022/06/06 12:08:52;;;;;;;;;;;25.20;65.50;;;;;;5054712;28;19915;-82
2022/06/06 12:11:27;;;;;;;;;;;25.60;65.30;;;;;;5055343;28;20046;-82
2022/06/06 12:14:08;;;;;;;;;;;25.70;65.30;;;;;;5055504;28;20411;-82
2022/06/06 12:16:48;;;;;;;;;;;25.10;65.10;;;;;;5055315;28;19928;-82
2022/06/06 12:19:32;;;;;;;;;;;24.30;67.20;;;;;;5055176;28;19917;-81
2022/06/06 12:22:13;;;;;;;;;;;23.70;67.50;;;;;;5055339;28;19908;-82
2022/06/06 12:24:49;;;;;;;;;;;23.30;69.60;;;;;;5055257;28;19909;-82
2022/06/06 12:27:21;;;;;;;;;;;23.20;70.20;;;;;;5055143;28;19909;-82
2022/06/06 12:29:47;;;;;;;;;;;23.50;71.00;;;;;;5055066;28;19947;-81
2022/06/06 12:32:26;;;;;;;;;;;23.70;69.70;;;;;;5055227;28;19920;-81
2022/06/06 12:35:03;;;;;;;;;;;23.50;70.20;;;;;;5055174;28;19996;-82
2022/06/06 12:37:28;;;;;;;;;;;23.50;69.60;;;;;;5054722;28;19928;-80
2022/06/06 12:40:04;;;;;;;;;;;23.30;71.50;;;;;;5054947;28;19913;-82
2022/06/06 12:42:36;;;;;;;;;;;23.30;72.20;;;;;;5055004;28;20262;-81
2022/06/06 12:45:21;;;;;;;;;;;23.20;73.20;;;;;;5054796;28;19916;-81
2022/06/06 12:47:46;;;;;;;;;;;23.10;71.70;;;;;;5054711;28;19916;-81
2022/06/06 12:50:12;;;;;;;;;;;22.80;72.90;;;;;;5054724;28;19909;-81
2022/06/06 12:52:44;;;;;;;;;;;22.60;73.70;;;;;;5054848;28;19909;-81
2022/06/06 12:57:53;;;;;;;;;;;22.60;75.90;;;;;;5054326;28;19958;-81
2022/06/06 13:01:37;;;;;;;;;;;22.90;75.30;;;;;;5036588;28;19913;-81
2022/06/06 13:03:18;;;;;;;;;;;23.30;73.30;;;;;;5054178;28;20266;-82
2022/06/06 13:05:51;;;;;;;;;;;23.90;73.20;;;;;;5054333;28;19952;-80
2022/06/06 13:08:25;;;;;;;;;;;24.60;71.90;;;;;;5054529;28;19944;-80
2022/06/06 13:11:09;;;;;;;;;;;24.80;71.20;;;;;;5054437;28;19916;-82
2022/06/06 13:13:46;;;;;;;;;;;25.00;69.40;;;;;;5054285;28;19963;-82
2022/06/06 13:16:19;;;;;;;;;;;26.90;68.10;;;;;;5054580;28;20273;-82
2022/06/06 13:18:51;;;;;;;;;;;28.40;64.50;;;;;;5054312;28;19913;-81
2022/06/06 13:21:27;;;;;;;;;;;27.60;64.50;;;;;;5054096;28;19908;-81
2022/06/06 13:24:08;;;;;;;;;;;26.50;64.40;;;;;;5054087;28;20412;-81
2022/06/06 13:26:41;;;;;;;;;;;25.70;66.80;;;;;;5054073;28;20331;-80
2022/06/06 13:29:07;;;;;;;;;;;25.00;68.50;;;;;;5052341;28;20290;-82
2022/06/06 13:31:42;;;;;;;;;;;24.90;68.90;;;;;;5052617;28;20022;-81
2022/06/06 13:34:10;;;;;;;;;;;24.60;69.70;;;;;;5054119;28;20396;-82
2022/06/06 13:36:56;;;;;;;;;;;24.10;72.40;;;;;;5035788;28;19928;-82
2022/06/06 13:39:38;;;;;;;;;;;23.60;74.20;;;;;;5053937;28;20059;-82
2022/06/06 13:42:33;;;;;;;;;;;23.70;73.70;;;;;;5053818;28;19920;-82
2022/06/06 13:45:01;;;;;;;;;;;23.90;72.50;;;;;;4982745;28;19913;-82
2022/06/06 13:47:45;;;;;;;;;;;23.80;73.70;;;;;;5035628;28;19955;-82
2022/06/06 13:50:17;;;;;;;;;;;23.20;74.10;;;;;;5053854;28;19909;-82
2022/06/06 13:52:51;;;;;;;;;;;22.90;76.10;;;;;;5053671;28;19944;-82
2022/06/06 13:55:34;;;;;;;;;;;23.20;76.80;;;;;;5053643;28;19915;-80
2022/06/06 13:58:18;;;;;;;;;;;23.00;76.50;;;;;;5053494;28;19932;-80
2022/06/06 14:00:44;;;;;;;;;;;23.20;76.60;;;;;;5053724;28;19917;-82
2022/06/06 14:03:26;;;;;;;;;;;23.30;76.80;;;;;;5053577;28;19916;-80
2022/06/06 14:05:51;;;;;;;;;;;23.80;75.60;;;;;;5053984;28;19908;-82
2022/06/06 14:08:18;;;;;;;;;;;24.10;76.50;;;;;;5057913;28;19923;-82
2022/06/06 14:10:47;;;;;;;;;;;24.00;74.60;;;;;;5059986;28;19939;-81
2022/06/06 14:13:17;;;;;;;;;;;23.50;75.40;;;;;;5060039;28;19909;-81
2022/06/06 14:15:47;;;;;;;;;;;23.50;77.80;;;;;;5060616;28;19970;-82
2022/06/06 14:18:26;;;;;;;;;;;23.20;78.20;;;;;;5060408;28;20349;-82
2022/06/06 14:20:56;;;;;;;;;;;22.90;80.40;;;;;;5060145;28;19919;-80
2022/06/06 14:23:23;;;;;;;;;;;22.00;83.00;;;;;;5042027;28;19916;-83
2022/06/06 14:25:51;;;;;;;;;;;21.70;87.30;;;;;;5059988;28;19913;-82
2022/06/06 14:28:18;;;;;;;;;;;21.20;88.60;;;;;;5060326;28;19944;-80
2022/06/06 14:30:43;;;;;;;;;;;20.90;91.00;;;;;;5060099;28;19962;-82
2022/06/06 14:33:20;;;;;;;;;;;20.80;91.90;;;;;;5042052;28;19947;-80
2022/06/06 14:35:46;;;;;;;;;;;20.70;92.30;;;;;;5059956;28;19908;-81
2022/06/06 14:38:20;;;;;;;;;;;20.60;93.00;;;;;;5059481;28;19920;-81
2022/06/06 14:41:03;;;;;;;;;;;20.50;94.50;;;;;;5059762;28;20364;-82
2022/06/06 14:43:31;;;;;;;;;;;20.60;94.50;;;;;;5059968;28;20395;-81
2022/06/06 14:45:59;;;;;;;;;;;20.70;94.70;;;;;;5059857;28;20353;-81
2022/06/06 14:48:38;;;;;;;;;;;20.70;94.90;;;;;;5060002;28;20369;-82
2022/06/06 14:51:05;;;;;;;;;;;20.70;95.60;;;;;;5041668;28;19913;-81
2022/06/06 14:53:33;;;;;;;;;;;20.70;95.80;;;;;;5059819;28;19909;-83
2022/06/06 14:56:00;;;;;;;;;;;20.40;96.70;;;;;;5058495;28;19958;-82
2022/06/06 14:58:28;;;;;;;;;;;20.80;96.50;;;;;;5059851;28;19909;-80
2022/06/06 15:00:55;;;;;;;;;;;21.20;95.50;;;;;;5059729;28;19912;-81
2022/06/06 15:03:32;;;;;;;;;;;21.50;94.30;;;;;;5059685;28;20407;-82
2022/06/06 15:06:11;;;;;;;;;;;21.90;93.60;;;;;;5059682;28;20003;-82
2022/06/06 15:08:41;;;;;;;;;;;21.80;94.00;;;;;;5059965;28;19936;-79
2022/06/06 15:11:12;;;;;;;;;;;21.30;94.80;;;;;;5059469;28;19909;-81
2022/06/06 15:13:39;;;;;;;;;;;21.10;95.70;;;;;;5059519;28;19915;-81